Tuesday, July 7, 2015, 12:54 AM EDT

KPHF, Williamsburg International Airport

Location: Newport News, VA, United States Lat: 37.133
Local Time: 12:54 AM EDT ( 4:54 GMT) Lon: -76.5
Time Zone: US/Eastern Elev: 42 ft

Show me the last for .
Show Decoded

2015-07-06 23:54 METAR KPHF 070354Z 20005KT 10SM CLR 24/21 A3006 RMK AO2 SLP179 T02390206 =
2015-07-06 22:54 METAR KPHF 070254Z 21008KT 10SM CLR 24/21 A3007 RMK AO2 SLP182 60002 T02390211
                 53003 =
2015-07-06 21:54 METAR KPHF 070154Z 17007KT 10SM FEW100 24/22 A3006 RMK AO2 LTG DSNT S AND SW
                 RAB12E23B27E36 TSE19 SLP178 P0000 T02390222 =
2015-07-06 21:41 METAR KPHF 070141Z 17006KT 10SM FEW100 24/22 A3006 RMK AO2 LTG DSNT ALQDS
                 RAB12E23B27E36 TSE19 P0000 T02390222 =
2015-07-06 21:25 METAR KPHF 070125Z 13005KT 10SM VCTS FEW100 23/22 A3005 RMK AO2 LTG DSNT ALQDS
                 RAB12E23 TSE19 P0000 T02330217 =
2015-07-06 20:54 METAR KPHF 070054Z 15005KT 10SM TS FEW034 SCT070 BKN090 23/21 A3006 =
2015-07-06 19:54 METAR KPHF 062354Z 17010KT 10SM CLR 28/23 A3005 RMK AO2 LTG DSNT N AND SW SLP175
                 T02780233 10311 20278 55005 =
2015-07-06 18:54 METAR KPHF 062254Z 16012G18KT 10SM CLR 28/23 A3004 RMK AO2 LTG DSNT NW SLP172
                 T02830233 =
2015-07-06 17:54 METAR KPHF 062154Z 17012G18KT 10SM CLR 29/23 A3005 RMK AO2 SLP176 T02940228 =
2015-07-06 16:54 METAR KPHF 062054Z 16008KT 10SM CLR 30/22 A3006 RMK AO2 SLP179 T03000217 58009 =
2015-07-06 15:54 METAR KPHF 061954Z 18008KT 10SM SCT110 30/22 A3007 RMK AO2 LTG DSNT E AND SE
                 SLP183 T03000222 =
2015-07-06 14:54 METAR KPHF 061854Z 17015G18KT 10SM SCT036 SCT110 30/23 A3008 =
2015-07-06 13:54 METAR KPHF 061754Z 21008KT 10SM CLR 31/23 A3009 =
2015-07-06 12:54 METAR KPHF 061654Z 21009KT 10SM FEW032 29/23 A3012 RMK AO2 SLP198 T02940228 =
2015-07-06 12:23 METAR KPHF 061623Z 22008KT 10SM SCT026 SCT030 29/23 A3012 RMK AO2 T02890228 =
2015-07-06 11:54 METAR KPHF 061554Z 22010KT 10SM BKN021 28/23 A3012 RMK AO2 SLP200 T02780233 =
2015-07-06 11:08 METAR KPHF 061508Z 20010KT 10SM BKN017 27/23 A3014 RMK AO2 T02720233 =
2015-07-06 10:54 METAR KPHF 061454Z 16008KT 10SM SCT017 28/23 A3013 RMK AO2 SLP203 T02780233
                 51000 =
2015-07-06 09:54 METAR KPHF 061354Z 17008KT 10SM CLR 27/23 A3013 =
2015-07-06 08:54 METAR KPHF 061254Z 16007KT 10SM CLR 26/22 A3014 RMK AO2 SLP204 T02560222 =
2015-07-06 07:54 METAR KPHF 061154Z 16006KT 10SM CLR 24/22 A3013 RMK AO2 SLP203 60006 70051
                 T02390222 10239 20222 51012 =
2015-07-06 06:54 METAR KPHF 061054Z 16005KT 10SM CLR 23/22 A3012 RMK AO2 SLP200 T02330222 =
2015-07-06 05:54 METAR KPHF 060954Z 16003KT 10SM CLR 23/22 A3012 RMK AO2 SLP197 T02280217 =
2015-07-06 04:54 METAR KPHF 060854Z 00000KT 10SM CLR 22/22 A3010 RMK AO2 SLP191 60006 T02220217
                 55008 =
2015-07-06 04:21 METAR KPHF 060821Z 13005KT 10SM FEW004 23/22 A3009 RMK AO2 T02280217 =
2015-07-06 03:54 METAR KPHF 060754Z 11005KT 10SM CLR 22/22 A3009 RMK AO2 RAE02 SLP189 P0000
                 T02220217 =
2015-07-06 02:54 METAR KPHF 060654Z 00000KT 10SM -RA FEW065 FEW090 BKN110 22/22 A3009 RMK AO2 LTG
                 DSNT NE AND E SLP188 P0006 T02220217 =
2015-07-06 01:54 METAR KPHF 060554Z VRB04KT 10SM -RA SCT045 BKN060 OVC100 23/22 A3012 =

Support USWX by starting your Amazon purchase here.